Canada, Kentucky
Current Conditions -  °F | °C
As of 6:15 PM on Wednesday 26 Nov 2014 (Local Time) from KPBX Reporting Station
Scattered Clouds Scattered Clouds  
Wind Chill: 37°   Ceiling: Unl
Heat Index: 41°   Visibility: 10mi
Dew Point: 29°   Wind: 6mph
Humidity: 62%   Direction: 330°NNW
Pressure: 29.99"   Gusts: NA
Location:  37.59°N, 82.32°W
Report Text: KPBX 262315Z AUTO 33005KT 10SM SCT050 05/M02 A2999 RMK AO2 T00511016
Loading
Personal Weather Stations






























Interactive Weather Map New forecast layout! Learn more

10-Day Weather Forecast

Advertisements
Track Severe Weather on mobile